sensor_id;sensor_type;location;lat;lon;timestamp;temperature;humidity
68217;DHT22;55037;52.354;4.992;2022-11-02T00:00:27;12.80;90.70
68217;DHT22;55037;52.354;4.992;2022-11-02T00:02:56;12.80;90.60
68217;DHT22;55037;52.354;4.992;2022-11-02T00:05:24;12.90;90.40
68217;DHT22;55037;52.354;4.992;2022-11-02T00:07:53;13.00;89.60
68217;DHT22;55037;52.354;4.992;2022-11-02T00:10:21;12.90;90.10
68217;DHT22;55037;52.354;4.992;2022-11-02T00:12:49;13.00;89.90
68217;DHT22;55037;52.354;4.992;2022-11-02T00:15:17;13.00;89.70
68217;DHT22;55037;52.354;4.992;2022-11-02T00:17:47;13.00;89.50
68217;DHT22;55037;52.354;4.992;2022-11-02T00:20:18;13.00;89.50
68217;DHT22;55037;52.354;4.992;2022-11-02T00:22:49;13.00;89.50
68217;DHT22;55037;52.354;4.992;2022-11-02T00:25:19;13.00;89.60
68217;DHT22;55037;52.354;4.992;2022-11-02T00:27:47;13.00;90.00
68217;DHT22;55037;52.354;4.992;2022-11-02T00:30:15;13.00;90.00
68217;DHT22;55037;52.354;4.992;2022-11-02T00:32:42;13.00;90.10
68217;DHT22;55037;52.354;4.992;2022-11-02T00:35:09;12.90;89.90
68217;DHT22;55037;52.354;4.992;2022-11-02T00:37:37;12.80;90.50
68217;DHT22;55037;52.354;4.992;2022-11-02T00:40:04;12.60;90.30
68217;DHT22;55037;52.354;4.992;2022-11-02T00:42:32;12.50;90.80
68217;DHT22;55037;52.354;4.992;2022-11-02T00:44:59;12.50;91.20
68217;DHT22;55037;52.354;4.992;2022-11-02T00:47:26;12.50;90.70
68217;DHT22;55037;52.354;4.992;2022-11-02T00:49:54;12.30;90.50
68217;DHT22;55037;52.354;4.992;2022-11-02T00:52:21;12.30;90.80
68217;DHT22;55037;52.354;4.992;2022-11-02T00:54:51;12.10;90.60
68217;DHT22;55037;52.354;4.992;2022-11-02T00:57:18;12.00;90.60
68217;DHT22;55037;52.354;4.992;2022-11-02T00:59:45;11.70;88.60
68217;DHT22;55037;52.354;4.992;2022-11-02T01:02:15;11.50;89.30
68217;DHT22;55037;52.354;4.992;2022-11-02T01:04:42;11.20;89.00
68217;DHT22;55037;52.354;4.992;2022-11-02T01:07:09;11.10;89.80
68217;DHT22;55037;52.354;4.992;2022-11-02T01:09:37;11.00;90.10
68217;DHT22;55037;52.354;4.992;2022-11-02T01:12:04;11.00;90.00
68217;DHT22;55037;52.354;4.992;2022-11-02T01:14:32;11.10;90.00
68217;DHT22;55037;52.354;4.992;2022-11-02T01:16:59;11.10;90.00
68217;DHT22;55037;52.354;4.992;2022-11-02T01:19:26;11.10;89.20
68217;DHT22;55037;52.354;4.992;2022-11-02T01:21:56;11.30;90.00
68217;DHT22;55037;52.354;4.992;2022-11-02T01:24:23;11.30;89.80
68217;DHT22;55037;52.354;4.992;2022-11-02T01:26:51;11.40;89.60
68217;DHT22;55037;52.354;4.992;2022-11-02T01:29:18;11.50;89.50
68217;DHT22;55037;52.354;4.992;2022-11-02T01:31:45;11.60;89.20
68217;DHT22;55037;52.354;4.992;2022-11-02T01:34:14;11.70;89.20
68217;DHT22;55037;52.354;4.992;2022-11-02T01:36:43;11.80;88.80
68217;DHT22;55037;52.354;4.992;2022-11-02T01:39:12;11.90;88.10
68217;DHT22;55037;52.354;4.992;2022-11-02T01:41:40;12.00;87.60
68217;DHT22;55037;52.354;4.992;2022-11-02T01:44:26;12.00;86.20
68217;DHT22;55037;52.354;4.992;2022-11-02T01:47:02;12.00;85.40
68217;DHT22;55037;52.354;4.992;2022-11-02T01:49:35;12.00;85.30
68217;DHT22;55037;52.354;4.992;2022-11-02T01:52:18;12.00;84.90
68217;DHT22;55037;52.354;4.992;2022-11-02T01:54:59;11.90;84.60
68217;DHT22;55037;52.354;4.992;2022-11-02T01:57:31;11.90;84.10
68217;DHT22;55037;52.354;4.992;2022-11-02T02:00:07;11.80;83.30
68217;DHT22;55037;52.354;4.992;2022-11-02T02:02:57;11.70;84.30
68217;DHT22;55037;52.354;4.992;2022-11-02T02:05:30;11.70;84.40
68217;DHT22;55037;52.354;4.992;2022-11-02T02:08:01;11.70;84.50
68217;DHT22;55037;52.354;4.992;2022-11-02T02:10:30;11.80;84.40
68217;DHT22;55037;52.354;4.992;2022-11-02T02:12:58;11.70;84.50
68217;DHT22;55037;52.354;4.992;2022-11-02T02:18:57;11.90;84.60
68217;DHT22;55037;52.354;4.992;2022-11-02T02:21:48;11.90;85.60
68217;DHT22;55037;52.354;4.992;2022-11-02T02:29:27;12.00;84.40
68217;DHT22;55037;52.354;4.992;2022-11-02T02:32:08;12.10;84.30
68217;DHT22;55037;52.354;4.992;2022-11-02T02:35:01;12.20;84.00
68217;DHT22;55037;52.354;4.992;2022-11-02T02:37:40;12.20;83.80
68217;DHT22;55037;52.354;4.992;2022-11-02T02:40:15;12.10;83.40
68217;DHT22;55037;52.354;4.992;2022-11-02T02:42:47;11.90;84.30
68217;DHT22;55037;52.354;4.992;2022-11-02T02:45:25;11.80;85.10
68217;DHT22;55037;52.354;4.992;2022-11-02T02:48:19;11.80;85.70
68217;DHT22;55037;52.354;4.992;2022-11-02T02:50:53;11.70;86.10
68217;DHT22;55037;52.354;4.992;2022-11-02T02:53:27;11.70;86.70
68217;DHT22;55037;52.354;4.992;2022-11-02T02:55:57;11.60;87.60
68217;DHT22;55037;52.354;4.992;2022-11-02T02:58:35;11.50;88.60
68217;DHT22;55037;52.354;4.992;2022-11-02T03:01:04;11.50;89.20
68217;DHT22;55037;52.354;4.992;2022-11-02T03:03:34;11.50;89.60
68217;DHT22;55037;52.354;4.992;2022-11-02T03:08:38;11.90;88.40
68217;DHT22;55037;52.354;4.992;2022-11-02T03:11:11;12.00;88.80
68217;DHT22;55037;52.354;4.992;2022-11-02T03:13:54;12.10;88.10
68217;DHT22;55037;52.354;4.992;2022-11-02T03:16:41;12.20;87.60
68217;DHT22;55037;52.354;4.992;2022-11-02T03:21:43;12.00;88.10
68217;DHT22;55037;52.354;4.992;2022-11-02T03:26:50;11.90;89.10
68217;DHT22;55037;52.354;4.992;2022-11-02T03:29:27;11.80;89.40
68217;DHT22;55037;52.354;4.992;2022-11-02T03:32:04;11.90;89.70
68217;DHT22;55037;52.354;4.992;2022-11-02T03:34:38;11.90;90.10
68217;DHT22;55037;52.354;4.992;2022-11-02T03:37:34;11.80;90.00
68217;DHT22;55037;52.354;4.992;2022-11-02T03:40:08;11.80;90.10
68217;DHT22;55037;52.354;4.992;2022-11-02T03:42:40;11.90;90.30
68217;DHT22;55037;52.354;4.992;2022-11-02T03:45:20;11.90;90.50
68217;DHT22;55037;52.354;4.992;2022-11-02T03:47:52;12.00;89.60
68217;DHT22;55037;52.354;4.992;2022-11-02T03:50:21;12.00;90.10
68217;DHT22;55037;52.354;4.992;2022-11-02T03:52:56;12.00;90.20
68217;DHT22;55037;52.354;4.992;2022-11-02T03:55:33;12.00;90.30
68217;DHT22;55037;52.354;4.992;2022-11-02T03:58:01;12.00;90.60
68217;DHT22;55037;52.354;4.992;2022-11-02T04:00:32;12.10;90.60
68217;DHT22;55037;52.354;4.992;2022-11-02T04:03:06;12.10;90.50
68217;DHT22;55037;52.354;4.992;2022-11-02T04:05:38;12.00;90.30
68217;DHT22;55037;52.354;4.992;2022-11-02T04:08:18;11.80;90.70
68217;DHT22;55037;52.354;4.992;2022-11-02T04:10:52;11.80;91.10
68217;DHT22;55037;52.354;4.992;2022-11-02T04:13:40;11.80;91.40
68217;DHT22;55037;52.354;4.992;2022-11-02T04:16:28;11.80;91.70
68217;DHT22;55037;52.354;4.992;2022-11-02T04:18:58;11.80;91.80
68217;DHT22;55037;52.354;4.992;2022-11-02T04:21:44;11.80;91.90
68217;DHT22;55037;52.354;4.992;2022-11-02T04:24:34;11.80;91.80
68217;DHT22;55037;52.354;4.992;2022-11-02T04:27:32;11.80;91.90
68217;DHT22;55037;52.354;4.992;2022-11-02T04:30:00;11.80;91.70
68217;DHT22;55037;52.354;4.992;2022-11-02T04:32:35;11.70;91.60
68217;DHT22;55037;52.354;4.992;2022-11-02T04:35:23;11.70;92.00
68217;DHT22;55037;52.354;4.992;2022-11-02T04:37:51;11.80;92.20
68217;DHT22;55037;52.354;4.992;2022-11-02T04:40:38;11.80;92.30
68217;DHT22;55037;52.354;4.992;2022-11-02T04:43:06;11.90;92.30
68217;DHT22;55037;52.354;4.992;2022-11-02T04:45:34;12.00;92.20
68217;DHT22;55037;52.354;4.992;2022-11-02T04:48:07;12.00;92.20
68217;DHT22;55037;52.354;4.992;2022-11-02T04:50:35;12.00;92.10
68217;DHT22;55037;52.354;4.992;2022-11-02T04:53:05;12.00;92.20
68217;DHT22;55037;52.354;4.992;2022-11-02T04:55:34;12.00;92.20
68217;DHT22;55037;52.354;4.992;2022-11-02T04:58:02;12.00;91.90
68217;DHT22;55037;52.354;4.992;2022-11-02T05:00:30;12.00;92.30
68217;DHT22;55037;52.354;4.992;2022-11-02T05:02:57;12.10;92.10
68217;DHT22;55037;52.354;4.992;2022-11-02T05:05:25;12.10;92.20
68217;DHT22;55037;52.354;4.992;2022-11-02T05:07:56;12.00;92.20
68217;DHT22;55037;52.354;4.992;2022-11-02T05:10:24;12.00;92.20
68217;DHT22;55037;52.354;4.992;2022-11-02T05:12:56;12.00;92.20
68217;DHT22;55037;52.354;4.992;2022-11-02T05:15:27;12.00;92.30
68217;DHT22;55037;52.354;4.992;2022-11-02T05:17:54;12.00;92.20
68217;DHT22;55037;52.354;4.992;2022-11-02T05:20:22;12.00;92.20
68217;DHT22;55037;52.354;4.992;2022-11-02T05:22:49;12.00;92.30
68217;DHT22;55037;52.354;4.992;2022-11-02T05:25:18;12.00;92.20
68217;DHT22;55037;52.354;4.992;2022-11-02T05:27:45;12.00;92.30
68217;DHT22;55037;52.354;4.992;2022-11-02T05:30:13;12.00;92.30
68217;DHT22;55037;52.354;4.992;2022-11-02T05:32:42;12.00;92.20
68217;DHT22;55037;52.354;4.992;2022-11-02T05:35:10;12.00;92.10
68217;DHT22;55037;52.354;4.992;2022-11-02T05:37:38;11.90;91.90
68217;DHT22;55037;52.354;4.992;2022-11-02T05:40:06;11.90;91.90
68217;DHT22;55037;52.354;4.992;2022-11-02T05:42:35;11.90;91.80
68217;DHT22;55037;52.354;4.992;2022-11-02T05:45:02;11.90;91.70
68217;DHT22;55037;52.354;4.992;2022-11-02T05:47:29;11.90;91.60
68217;DHT22;55037;52.354;4.992;2022-11-02T05:49:57;11.90;91.20
68217;DHT22;55037;52.354;4.992;2022-11-02T05:52:24;12.10;91.50
68217;DHT22;55037;52.354;4.992;2022-11-02T05:54:51;12.20;91.10
68217;DHT22;55037;52.354;4.992;2022-11-02T05:57:18;12.40;90.50
68217;DHT22;55037;52.354;4.992;2022-11-02T05:59:46;12.40;90.10
68217;DHT22;55037;52.354;4.992;2022-11-02T06:02:15;12.50;89.50
68217;DHT22;55037;52.354;4.992;2022-11-02T06:04:42;12.30;88.70
68217;DHT22;55037;52.354;4.992;2022-11-02T06:07:09;12.50;88.00
68217;DHT22;55037;52.354;4.992;2022-11-02T06:09:37;12.50;87.10
68217;DHT22;55037;52.354;4.992;2022-11-02T06:12:04;12.50;86.70
68217;DHT22;55037;52.354;4.992;2022-11-02T06:14:31;12.50;86.80
68217;DHT22;55037;52.354;4.992;2022-11-02T06:16:58;12.60;86.30
68217;DHT22;55037;52.354;4.992;2022-11-02T06:19:25;12.60;85.80
68217;DHT22;55037;52.354;4.992;2022-11-02T06:21:53;12.70;85.50
68217;DHT22;55037;52.354;4.992;2022-11-02T06:24:20;12.60;84.80
68217;DHT22;55037;52.354;4.992;2022-11-02T06:26:47;12.70;84.20
68217;DHT22;55037;52.354;4.992;2022-11-02T06:29:14;12.80;83.00
68217;DHT22;55037;52.354;4.992;2022-11-02T06:31:42;12.80;83.50
68217;DHT22;55037;52.354;4.992;2022-11-02T06:34:09;12.80;82.90
68217;DHT22;55037;52.354;4.992;2022-11-02T06:36:36;12.80;82.60
68217;DHT22;55037;52.354;4.992;2022-11-02T06:39:03;12.80;81.50
68217;DHT22;55037;52.354;4.992;2022-11-02T06:41:30;12.80;82.10
68217;DHT22;55037;52.354;4.992;2022-11-02T06:43:57;12.90;81.70
68217;DHT22;55037;52.354;4.992;2022-11-02T06:46:24;13.00;81.10
68217;DHT22;55037;52.354;4.992;2022-11-02T06:48:52;13.10;80.40
68217;DHT22;55037;52.354;4.992;2022-11-02T06:51:19;13.10;79.80
68217;DHT22;55037;52.354;4.992;2022-11-02T06:53:46;13.00;79.60
68217;DHT22;55037;52.354;4.992;2022-11-02T06:56:13;13.00;79.50
68217;DHT22;55037;52.354;4.992;2022-11-02T06:58:40;13.10;78.90
68217;DHT22;55037;52.354;4.992;2022-11-02T07:01:08;13.10;78.80
68217;DHT22;55037;52.354;4.992;2022-11-02T07:03:35;13.10;78.80
68217;DHT22;55037;52.354;4.992;2022-11-02T07:06:03;13.10;78.10
68217;DHT22;55037;52.354;4.992;2022-11-02T07:08:34;13.10;77.30
68217;DHT22;55037;52.354;4.992;2022-11-02T07:11:01;13.00;78.10
68217;DHT22;55037;52.354;4.992;2022-11-02T07:13:28;13.20;78.10
68217;DHT22;55037;52.354;4.992;2022-11-02T07:15:56;13.30;77.40
68217;DHT22;55037;52.354;4.992;2022-11-02T07:18:23;13.40;76.50
68217;DHT22;55037;52.354;4.992;2022-11-02T07:20:52;13.40;76.10
68217;DHT22;55037;52.354;4.992;2022-11-02T07:23:19;13.40;75.50
68217;DHT22;55037;52.354;4.992;2022-11-02T07:25:50;13.30;75.30
68217;DHT22;55037;52.354;4.992;2022-11-02T07:28:17;13.40;75.20
68217;DHT22;55037;52.354;4.992;2022-11-02T07:30:45;13.50;74.80
68217;DHT22;55037;52.354;4.992;2022-11-02T07:33:12;13.60;74.10
68217;DHT22;55037;52.354;4.992;2022-11-02T07:35:39;13.60;73.80
68217;DHT22;55037;52.354;4.992;2022-11-02T07:38:08;13.50;73.70
68217;DHT22;55037;52.354;4.992;2022-11-02T07:40:35;13.50;73.60
68217;DHT22;55037;52.354;4.992;2022-11-02T07:43:05;13.60;73.30
68217;DHT22;55037;52.354;4.992;2022-11-02T07:45:40;13.60;72.50
68217;DHT22;55037;52.354;4.992;2022-11-02T07:48:07;13.80;73.40
68217;DHT22;55037;52.354;4.992;2022-11-02T07:50:34;14.60;71.50
68217;DHT22;55037;52.354;4.992;2022-11-02T07:53:02;16.10;66.90
68217;DHT22;55037;52.354;4.992;2022-11-02T07:55:30;17.50;62.00
68217;DHT22;55037;52.354;4.992;2022-11-02T07:58:06;18.50;56.60
68217;DHT22;55037;52.354;4.992;2022-11-02T08:00:37;19.40;51.80
68217;DHT22;55037;52.354;4.992;2022-11-02T08:03:06;20.20;48.60
68217;DHT22;55037;52.354;4.992;2022-11-02T08:05:36;20.60;46.10
68217;DHT22;55037;52.354;4.992;2022-11-02T08:08:04;20.90;44.60
68217;DHT22;55037;52.354;4.992;2022-11-02T08:10:34;21.20;43.50
68217;DHT22;55037;52.354;4.992;2022-11-02T08:13:05;21.70;41.90
68217;DHT22;55037;52.354;4.992;2022-11-02T08:15:33;22.10;39.50
68217;DHT22;55037;52.354;4.992;2022-11-02T08:18:05;21.10;41.40
68217;DHT22;55037;52.354;4.992;2022-11-02T08:20:34;21.50;41.10
68217;DHT22;55037;52.354;4.992;2022-11-02T08:23:03;22.30;39.40
68217;DHT22;55037;52.354;4.992;2022-11-02T08:25:30;23.20;37.40
68217;DHT22;55037;52.354;4.992;2022-11-02T08:27:59;24.20;35.20
68217;DHT22;55037;52.354;4.992;2022-11-02T08:30:28;23.90;35.10
68217;DHT22;55037;52.354;4.992;2022-11-02T08:33:00;24.70;34.00
68217;DHT22;55037;52.354;4.992;2022-11-02T08:35:27;25.80;32.20
68217;DHT22;55037;52.354;4.992;2022-11-02T08:37:56;28.20;28.20
68217;DHT22;55037;52.354;4.992;2022-11-02T08:40:23;28.70;26.70
68217;DHT22;55037;52.354;4.992;2022-11-02T08:43:00;27.80;27.50
68217;DHT22;55037;52.354;4.992;2022-11-02T08:45:29;27.10;28.10
68217;DHT22;55037;52.354;4.992;2022-11-02T08:48:16;27.00;28.10
68217;DHT22;55037;52.354;4.992;2022-11-02T08:50:44;26.30;28.70
68217;DHT22;55037;52.354;4.992;2022-11-02T08:53:11;26.20;28.80
68217;DHT22;55037;52.354;4.992;2022-11-02T08:55:38;26.30;29.00
68217;DHT22;55037;52.354;4.992;2022-11-02T08:58:05;26.70;28.40
68217;DHT22;55037;52.354;4.992;2022-11-02T09:00:34;27.00;27.70
68217;DHT22;55037;52.354;4.992;2022-11-02T09:03:09;27.40;27.60
68217;DHT22;55037;52.354;4.992;2022-11-02T09:05:39;27.40;27.00
68217;DHT22;55037;52.354;4.992;2022-11-02T09:08:13;27.00;27.50
68217;DHT22;55037;52.354;4.992;2022-11-02T09:10:40;27.10;27.40
68217;DHT22;55037;52.354;4.992;2022-11-02T09:13:10;27.10;27.00
68217;DHT22;55037;52.354;4.992;2022-11-02T09:15:38;27.50;27.10
68217;DHT22;55037;52.354;4.992;2022-11-02T09:18:07;28.00;25.90
68217;DHT22;55037;52.354;4.992;2022-11-02T09:20:35;27.80;25.90
68217;DHT22;55037;52.354;4.992;2022-11-02T09:23:03;27.90;26.00
68217;DHT22;55037;52.354;4.992;2022-11-02T09:25:30;28.00;25.10
68217;DHT22;55037;52.354;4.992;2022-11-02T09:27:57;27.50;25.90
68217;DHT22;55037;52.354;4.992;2022-11-02T09:30:25;27.60;25.50
68217;DHT22;55037;52.354;4.992;2022-11-02T09:32:56;27.00;25.90
68217;DHT22;55037;52.354;4.992;2022-11-02T09:35:25;26.30;26.70
68217;DHT22;55037;52.354;4.992;2022-11-02T09:37:52;26.00;27.10
68217;DHT22;55037;52.354;4.992;2022-11-02T09:40:22;26.30;26.90
68217;DHT22;55037;52.354;4.992;2022-11-02T09:45:19;28.00;25.00
68217;DHT22;55037;52.354;4.992;2022-11-02T09:47:51;28.80;24.20
68217;DHT22;55037;52.354;4.992;2022-11-02T09:50:51;29.20;23.70
68217;DHT22;55037;52.354;4.992;2022-11-02T09:54:02;29.30;23.30
68217;DHT22;55037;52.354;4.992;2022-11-02T09:56:42;26.10;26.60
68217;DHT22;55037;52.354;4.992;2022-11-02T09:59:15;26.00;27.40
68217;DHT22;55037;52.354;4.992;2022-11-02T10:10:11;25.60;28.30
68217;DHT22;55037;52.354;4.992;2022-11-02T10:13:03;27.30;26.00
68217;DHT22;55037;52.354;4.992;2022-11-02T10:15:41;28.30;25.00
68217;DHT22;55037;52.354;4.992;2022-11-02T10:18:26;28.90;24.00
68217;DHT22;55037;52.354;4.992;2022-11-02T10:20:58;29.30;23.40
68217;DHT22;55037;52.354;4.992;2022-11-02T10:23:32;28.50;23.70
68217;DHT22;55037;52.354;4.992;2022-11-02T10:26:01;28.80;24.50
68217;DHT22;55037;52.354;4.992;2022-11-02T10:28:33;28.60;23.20
68217;DHT22;55037;52.354;4.992;2022-11-02T10:31:02;28.50;23.70
68217;DHT22;55037;52.354;4.992;2022-11-02T10:33:30;29.50;23.10
68217;DHT22;55037;52.354;4.992;2022-11-02T10:36:03;30.60;22.20
68217;DHT22;55037;52.354;4.992;2022-11-02T10:41:51;30.50;21.40
68217;DHT22;55037;52.354;4.992;2022-11-02T10:47:23;30.30;21.90
68217;DHT22;55037;52.354;4.992;2022-11-02T10:53:11;32.00;20.60
68217;DHT22;55037;52.354;4.992;2022-11-02T10:58:59;28.80;23.40
68217;DHT22;55037;52.354;4.992;2022-11-02T11:01:29;28.80;22.70
68217;DHT22;55037;52.354;4.992;2022-11-02T11:04:02;26.90;24.80
68217;DHT22;55037;52.354;4.992;2022-11-02T11:06:35;25.60;26.80
68217;DHT22;55037;52.354;4.992;2022-11-02T11:12:01;25.20;29.00
68217;DHT22;55037;52.354;4.992;2022-11-02T11:14:29;27.90;25.50
68217;DHT22;55037;52.354;4.992;2022-11-02T11:17:25;28.50;24.80
68217;DHT22;55037;52.354;4.992;2022-11-02T11:20:39;29.20;24.10
68217;DHT22;55037;52.354;4.992;2022-11-02T11:23:25;29.50;23.70
68217;DHT22;55037;52.354;4.992;2022-11-02T11:26:01;28.30;24.30
68217;DHT22;55037;52.354;4.992;2022-11-02T11:31:16;26.00;28.80
68217;DHT22;55037;52.354;4.992;2022-11-02T11:33:53;28.00;26.20
68217;DHT22;55037;52.354;4.992;2022-11-02T11:36:29;26.60;26.60
68217;DHT22;55037;52.354;4.992;2022-11-02T11:39:18;24.00;29.90
68217;DHT22;55037;52.354;4.992;2022-11-02T11:41:48;23.70;32.40
68217;DHT22;55037;52.354;4.992;2022-11-02T11:44:16;26.90;27.80
68217;DHT22;55037;52.354;4.992;2022-11-02T11:46:55;29.00;25.10
68217;DHT22;55037;52.354;4.992;2022-11-02T11:49:29;30.50;22.80
68217;DHT22;55037;52.354;4.992;2022-11-02T11:52:21;31.60;21.50
68217;DHT22;55037;52.354;4.992;2022-11-02T11:55:18;31.50;22.00
68217;DHT22;55037;52.354;4.992;2022-11-02T11:57:46;31.30;21.60
68217;DHT22;55037;52.354;4.992;2022-11-02T12:00:30;29.50;22.10
68217;DHT22;55037;52.354;4.992;2022-11-02T12:03:05;27.20;25.50
68217;DHT22;55037;52.354;4.992;2022-11-02T12:19:21;31.30;22.70
68217;DHT22;55037;52.354;4.992;2022-11-02T12:25:17;32.00;22.50
68217;DHT22;55037;52.354;4.992;2022-11-02T12:28:24;32.20;20.70
68217;DHT22;55037;52.354;4.992;2022-11-02T12:42:45;22.90;34.20
68217;DHT22;55037;52.354;4.992;2022-11-02T12:45:26;25.40;30.80
68217;DHT22;55037;52.354;4.992;2022-11-02T12:48:05;26.80;28.70
68217;DHT22;55037;52.354;4.992;2022-11-02T12:50:42;27.10;28.40
68217;DHT22;55037;52.354;4.992;2022-11-02T12:56:00;27.10;27.50
68217;DHT22;55037;52.354;4.992;2022-11-02T12:58:31;25.80;28.60
68217;DHT22;55037;52.354;4.992;2022-11-02T13:01:18;25.50;29.60
68217;DHT22;55037;52.354;4.992;2022-11-02T13:04:12;25.50;28.50
68217;DHT22;55037;52.354;4.992;2022-11-02T13:06:48;25.50;29.60
68217;DHT22;55037;52.354;4.992;2022-11-02T13:09:31;26.00;29.10
68217;DHT22;55037;52.354;4.992;2022-11-02T13:12:20;26.80;28.00
68217;DHT22;55037;52.354;4.992;2022-11-02T13:14:51;27.30;27.20
68217;DHT22;55037;52.354;4.992;2022-11-02T13:20:18;25.70;28.50
68217;DHT22;55037;52.354;4.992;2022-11-02T13:25:41;26.10;28.60
68217;DHT22;55037;52.354;4.992;2022-11-02T13:28:11;24.70;29.90
68217;DHT22;55037;52.354;4.992;2022-11-02T13:30:40;24.70;30.80
68217;DHT22;55037;52.354;4.992;2022-11-02T13:33:24;24.90;30.80
68217;DHT22;55037;52.354;4.992;2022-11-02T13:35:54;25.30;30.50
68217;DHT22;55037;52.354;4.992;2022-11-02T13:49:50;24.10;34.40
68217;DHT22;55037;52.354;4.992;2022-11-02T13:52:40;24.50;34.10
68217;DHT22;55037;52.354;4.992;2022-11-02T13:55:58;24.60;33.50
68217;DHT22;55037;52.354;4.992;2022-11-02T13:58:42;24.30;34.00
68217;DHT22;55037;52.354;4.992;2022-11-02T14:01:09;23.80;34.20
68217;DHT22;55037;52.354;4.992;2022-11-02T14:03:57;22.90;35.00
68217;DHT22;55037;52.354;4.992;2022-11-02T14:06:31;20.90;38.50
68217;DHT22;55037;52.354;4.992;2022-11-02T14:09:02;20.00;43.30
68217;DHT22;55037;52.354;4.992;2022-11-02T14:14:22;20.50;40.80
68217;DHT22;55037;52.354;4.992;2022-11-02T14:27:05;20.00;42.80
68217;DHT22;55037;52.354;4.992;2022-11-02T14:29:52;19.90;43.70
68217;DHT22;55037;52.354;4.992;2022-11-02T14:43:27;19.40;45.60
68217;DHT22;55037;52.354;4.992;2022-11-02T14:49:02;18.60;48.20
68217;DHT22;55037;52.354;4.992;2022-11-02T14:51:35;18.40;49.00
68217;DHT22;55037;52.354;4.992;2022-11-02T14:54:16;18.20;49.90
68217;DHT22;55037;52.354;4.992;2022-11-02T14:59:38;17.50;52.80
68217;DHT22;55037;52.354;4.992;2022-11-02T15:02:19;17.30;54.40
68217;DHT22;55037;52.354;4.992;2022-11-02T15:04:51;16.90;56.20
68217;DHT22;55037;52.354;4.992;2022-11-02T15:07:30;16.70;58.00
68217;DHT22;55037;52.354;4.992;2022-11-02T15:12:46;16.10;60.30
68217;DHT22;55037;52.354;4.992;2022-11-02T15:15:34;15.90;61.50
68217;DHT22;55037;52.354;4.992;2022-11-02T15:18:23;15.80;62.40
68217;DHT22;55037;52.354;4.992;2022-11-02T15:26:39;15.30;64.70
68217;DHT22;55037;52.354;4.992;2022-11-02T15:31:56;15.10;65.80
68217;DHT22;55037;52.354;4.992;2022-11-02T15:34:36;15.00;65.80
68217;DHT22;55037;52.354;4.992;2022-11-02T15:37:07;15.00;66.00
68217;DHT22;55037;52.354;4.992;2022-11-02T15:39:34;14.90;65.40
68217;DHT22;55037;52.354;4.992;2022-11-02T15:42:11;14.90;66.10
68217;DHT22;55037;52.354;4.992;2022-11-02T15:52:45;14.70;67.40
68217;DHT22;55037;52.354;4.992;2022-11-02T15:56:16;14.60;66.80
68217;DHT22;55037;52.354;4.992;2022-11-02T16:01:38;14.40;68.50
68217;DHT22;55037;52.354;4.992;2022-11-02T16:04:06;14.30;69.10
68217;DHT22;55037;52.354;4.992;2022-11-02T16:06:36;14.20;69.80
68217;DHT22;55037;52.354;4.992;2022-11-02T16:09:28;14.10;69.60
68217;DHT22;55037;52.354;4.992;2022-11-02T16:12:22;14.10;70.40
68217;DHT22;55037;52.354;4.992;2022-11-02T16:14:56;14.00;70.80
68217;DHT22;55037;52.354;4.992;2022-11-02T16:17:26;13.90;71.00
68217;DHT22;55037;52.354;4.992;2022-11-02T16:20:17;14.00;70.70
68217;DHT22;55037;52.354;4.992;2022-11-02T16:25:40;13.90;71.00
68217;DHT22;55037;52.354;4.992;2022-11-02T16:28:31;13.90;71.00
68217;DHT22;55037;52.354;4.992;2022-11-02T16:31:17;13.90;71.10
68217;DHT22;55037;52.354;4.992;2022-11-02T16:36:19;13.90;71.20
68217;DHT22;55037;52.354;4.992;2022-11-02T16:38:57;13.90;70.30
68217;DHT22;55037;52.354;4.992;2022-11-02T16:41:26;13.90;71.10
68217;DHT22;55037;52.354;4.992;2022-11-02T16:43:55;13.80;71.00
68217;DHT22;55037;52.354;4.992;2022-11-02T16:46:57;13.80;70.90
68217;DHT22;55037;52.354;4.992;2022-11-02T16:49:27;13.80;70.70
68217;DHT22;55037;52.354;4.992;2022-11-02T16:51:56;13.80;70.70
68217;DHT22;55037;52.354;4.992;2022-11-02T16:56:57;13.70;71.00
68217;DHT22;55037;52.354;4.992;2022-11-02T16:59:25;13.70;70.20
68217;DHT22;55037;52.354;4.992;2022-11-02T17:01:58;13.70;71.10
68217;DHT22;55037;52.354;4.992;2022-11-02T17:04:29;13.60;71.10
68217;DHT22;55037;52.354;4.992;2022-11-02T17:07:13;13.60;71.00
68217;DHT22;55037;52.354;4.992;2022-11-02T17:09:53;13.60;70.70
68217;DHT22;55037;52.354;4.992;2022-11-02T17:12:41;13.60;70.50
68217;DHT22;55037;52.354;4.992;2022-11-02T17:15:29;13.60;70.30
68217;DHT22;55037;52.354;4.992;2022-11-02T17:20:36;13.60;69.90
68217;DHT22;55037;52.354;4.992;2022-11-02T17:23:06;13.60;69.80
68217;DHT22;55037;52.354;4.992;2022-11-02T17:25:35;13.60;69.80
68217;DHT22;55037;52.354;4.992;2022-11-02T17:31:00;13.60;69.30
68217;DHT22;55037;52.354;4.992;2022-11-02T17:33:29;13.50;69.00
68217;DHT22;55037;52.354;4.992;2022-11-02T17:36:05;13.60;69.10
68217;DHT22;55037;52.354;4.992;2022-11-02T17:38:34;13.60;68.60
68217;DHT22;55037;52.354;4.992;2022-11-02T17:41:01;13.60;68.40
68217;DHT22;55037;52.354;4.992;2022-11-02T17:43:49;13.60;68.30
68217;DHT22;55037;52.354;4.992;2022-11-02T17:46:16;13.70;68.00
68217;DHT22;55037;52.354;4.992;2022-11-02T17:48:43;13.70;67.90
68217;DHT22;55037;52.354;4.992;2022-11-02T17:51:10;13.60;67.70
68217;DHT22;55037;52.354;4.992;2022-11-02T17:53:38;13.60;67.70
68217;DHT22;55037;52.354;4.992;2022-11-02T17:56:05;13.60;67.70
68217;DHT22;55037;52.354;4.992;2022-11-02T17:58:33;13.50;67.80
68217;DHT22;55037;52.354;4.992;2022-11-02T18:01:00;13.50;67.90
68217;DHT22;55037;52.354;4.992;2022-11-02T18:03:29;13.50;67.90
68217;DHT22;55037;52.354;4.992;2022-11-02T18:05:57;13.40;68.00
68217;DHT22;55037;52.354;4.992;2022-11-02T18:08:26;13.40;68.00
68217;DHT22;55037;52.354;4.992;2022-11-02T18:10:54;13.40;67.80
68217;DHT22;55037;52.354;4.992;2022-11-02T18:13:22;13.90;68.10
68217;DHT22;55037;52.354;4.992;2022-11-02T18:15:49;13.40;67.70
68217;DHT22;55037;52.354;4.992;2022-11-02T18:18:17;13.50;67.50
68217;DHT22;55037;52.354;4.992;2022-11-02T18:20:44;13.50;67.30
68217;DHT22;55037;52.354;4.992;2022-11-02T18:23:15;13.50;66.90
68217;DHT22;55037;52.354;4.992;2022-11-02T18:25:43;13.60;66.70
68217;DHT22;55037;52.354;4.992;2022-11-02T18:28:10;13.70;66.40
68217;DHT22;55037;52.354;4.992;2022-11-02T18:30:41;13.60;66.30
68217;DHT22;55037;52.354;4.992;2022-11-02T18:33:09;13.60;65.80
68217;DHT22;55037;52.354;4.992;2022-11-02T18:35:40;13.60;65.60
68217;DHT22;55037;52.354;4.992;2022-11-02T18:38:08;13.60;65.30
68217;DHT22;55037;52.354;4.992;2022-11-02T18:40:35;13.70;65.30
68217;DHT22;55037;52.354;4.992;2022-11-02T18:43:03;13.70;65.20
68217;DHT22;55037;52.354;4.992;2022-11-02T18:45:31;13.70;65.20